Time;durP1;ratioP1;P1;durP2;ratioP2;P2;SDS_P1;SDS_P2;PMS_P1;PMS_P2;Temp;Humidity;BMP_temperature;BMP_pressure;BME280_temperature;BME280_humidity;BME280_pressure;Samples;Min_cycle;Max_cycle;Signal;HPM_P1;HPM_P2
2021/05/02 00:01:13;;;;;;;62.33;36.15;;;;;;;10.05;90.04;95801.97;1787378;79;21095;-86
2021/05/02 00:03:41;;;;;;;64.15;37.13;;;;;;;10.04;90.05;95791.13;1792705;79;21560;-86
2021/05/02 00:06:11;;;;;;;63.48;35.70;;;;;;;10.02;90.07;95785.35;1787260;79;21132;-86
2021/05/02 00:08:39;;;;;;;55.48;33.80;;;;;;;10.00;90.15;95775.59;1800542;79;21136;-86
2021/05/02 00:11:09;;;;;;;57.50;33.78;;;;;;;10.00;90.20;95770.30;1794020;79;21136;-86
2021/05/02 00:13:39;;;;;;;64.95;38.60;;;;;;;10.01;90.29;95760.50;1812907;79;21112;-87
2021/05/02 00:16:07;;;;;;;60.83;34.48;;;;;;;9.97;90.35;95748.36;1787176;79;21080;-86
2021/05/02 00:18:35;;;;;;;54.35;31.82;;;;;;;9.96;90.43;95745.47;1777778;79;21155;-86
2021/05/02 00:21:07;;;;;;;54.03;31.73;;;;;;;9.95;90.48;95744.45;1805807;79;21479;-86
2021/05/02 00:23:39;;;;;;;55.85;32.58;;;;;;;9.94;90.61;95743.66;1813872;78;21147;-86
2021/05/02 00:26:08;;;;;;;53.35;33.30;;;;;;;9.93;90.70;95740.77;1775259;79;21147;-87
2021/05/02 00:28:46;;;;;;;54.93;32.15;;;;;;;9.93;90.74;95735.48;1795943;79;21142;-86
2021/05/02 00:31:14;;;;;;;51.42;31.23;;;;;;;9.97;90.81;95731.69;1791043;79;21485;-86
2021/05/02 00:33:42;;;;;;;54.05;31.70;;;;;;;9.94;90.82;95722.48;1777956;79;21527;-86
2021/05/02 00:36:10;;;;;;;53.38;30.75;;;;;;;9.95;90.86;95719.30;1774823;80;21138;-86
2021/05/02 00:38:40;;;;;;;55.95;31.55;;;;;;;9.95;90.91;95719.30;1797179;78;21276;-86
2021/05/02 00:41:15;;;;;;;51.42;32.00;;;;;;;9.94;90.96;95707.14;1792101;78;21123;-87
2021/05/02 00:44:19;;;;;;;52.23;30.00;;;;;;;9.94;91.04;95702.63;1788666;78;21150;-87
2021/05/02 00:47:03;;;;;;;50.17;29.65;;;;;;;9.96;91.13;95702.33;1779423;80;21741;-86
2021/05/02 00:49:42;;;;;;;45.65;28.95;;;;;;;9.97;91.16;95713.16;1792473;78;21642;-87
2021/05/02 00:52:33;;;;;;;53.13;31.45;;;;;;;9.97;91.21;95705.22;1790459;78;21104;-86
2021/05/02 00:58:10;;;;;;;48.02;28.98;;;;;;;10.02;91.26;95696.64;1875592;76;22646;-85
2021/05/02 01:00:42;;;;;;;49.40;28.83;;;;;;;9.98;91.34;95689.57;1860600;76;21155;-86
2021/05/02 01:03:09;;;;;;;45.63;29.25;;;;;;;10.01;91.37;95694.30;1858971;76;21144;-86
2021/05/02 01:05:38;;;;;;;43.30;29.48;;;;;;;10.01;91.34;95681.84;1865622;76;21103;-86
2021/05/02 01:08:09;;;;;;;49.38;28.38;;;;;;;10.02;91.32;95684.73;1870619;76;21105;-87
2021/05/02 01:10:35;;;;;;;;;;;;;;;10.03;91.43;95682.33;1828807;77;21114;-87
2021/05/02 01:13:04;;;;;;;45.48;28.12;;;;;;;10.03;91.45;95678.35;1872009;76;20116;-87
2021/05/02 01:15:34;;;;;;;43.02;27.55;;;;;;;10.02;91.47;95674.14;1859080;76;21138;-86
2021/05/02 01:18:08;;;;;;;45.83;27.53;;;;;;;10.03;91.49;95675.70;1865573;76;21131;-87
2021/05/02 01:20:42;;;;;;;44.50;26.48;;;;;;;10.03;91.40;95669.09;1864413;76;21467;-86
2021/05/02 01:23:28;;;;;;;43.08;27.35;;;;;;;10.02;91.47;95663.55;1873759;76;21141;-86
2021/05/02 01:26:00;;;;;;;43.38;27.50;;;;;;;10.04;91.51;95660.06;1865437;76;21088;-86
2021/05/02 01:28:28;;;;;;;41.55;26.62;;;;;;;10.06;91.52;95651.27;1870881;76;21072;-86
2021/05/02 01:30:58;;;;;;;46.70;27.62;;;;;;;10.09;91.50;95644.59;1860935;76;21448;-86
2021/05/02 01:33:26;;;;;;;42.38;27.17;;;;;;;10.09;91.46;95641.40;1872442;76;21149;-86
2021/05/02 01:35:55;;;;;;;44.25;27.17;;;;;;;10.09;91.47;95636.64;1879447;76;21100;-86
2021/05/02 01:38:24;;;;;;;40.28;27.15;;;;;;;10.11;91.48;95633.94;1874273;76;22168;-87
2021/05/02 01:40:54;;;;;;;43.98;28.12;;;;;;;10.13;91.46;95628.34;1858487;76;21439;-86
2021/05/02 01:43:24;;;;;;;44.57;28.50;;;;;;;10.15;91.42;95618.80;1864027;76;21432;-87
2021/05/02 01:45:52;;;;;;;47.23;30.27;;;;;;;10.14;91.39;95613.26;1862814;76;21461;-86
2021/05/02 01:48:21;;;;;;;47.90;31.70;;;;;;;10.11;91.30;95608.00;1868389;76;21084;-87
2021/05/02 01:50:58;;;;;;;47.35;30.17;;;;;;;10.10;91.33;95604.56;1863596;76;21486;-86
2021/05/02 01:53:30;;;;;;;49.95;30.97;;;;;;;10.08;91.35;95601.44;1859227;76;21141;-87
2021/05/02 01:56:01;;;;;;;49.27;29.87;;;;;;;10.07;91.41;95587.95;1873045;76;21235;-86
2021/05/02 01:58:32;;;;;;;46.33;29.05;;;;;;;10.06;91.42;95587.72;1865060;76;21110;-86
2021/05/02 02:01:05;;;;;;;;;;;;;;;10.02;91.46;95586.76;1868295;76;21049;-87
2021/05/02 02:03:34;;;;;;;46.33;28.62;;;;;;;9.97;91.51;95576.27;1861888;76;20158;-87
2021/05/02 02:06:02;;;;;;;48.55;30.90;;;;;;;9.96;91.64;95576.02;1872782;76;21140;-86
2021/05/02 02:08:30;;;;;;;45.35;30.17;;;;;;;9.94;91.76;95574.22;1871935;76;22156;-87
2021/05/02 02:10:58;;;;;;;53.17;30.65;;;;;;;9.94;91.82;95567.60;1857137;76;21084;-86
2021/05/02 02:13:25;;;;;;;51.45;31.62;;;;;;;9.94;91.87;95572.89;1867682;76;21135;-87
2021/05/02 02:15:52;;;;;;;51.02;32.08;;;;;;;9.95;91.92;95567.84;1867537;76;21087;-86
2021/05/02 02:18:19;;;;;;;57.67;32.93;;;;;;;9.95;92.00;95553.28;1866295;76;21440;-86
2021/05/02 02:20:54;;;;;;;55.83;32.38;;;;;;;9.95;92.03;95543.23;1856820;76;21095;-87
2021/05/02 02:23:24;;;;;;;53.70;32.83;;;;;;;9.98;92.05;95536.01;1867264;76;21095;-87
2021/05/02 02:25:53;;;;;;;56.10;33.50;;;;;;;9.98;92.07;95524.88;1869573;76;21127;-86
2021/05/02 02:28:22;;;;;;;49.33;31.35;;;;;;;9.98;92.09;95514.83;1867496;76;21107;-88
2021/05/02 02:30:55;;;;;;;52.15;31.70;;;;;;;9.97;92.10;95519.34;1863331;76;21495;-87
2021/05/02 02:33:25;;;;;;;49.40;29.67;;;;;;;9.98;92.19;95514.28;1867710;76;21123;-87
2021/05/02 02:35:53;;;;;;;49.70;29.40;;;;;;;9.99;92.21;95511.91;1867442;76;21445;-86
2021/05/02 02:38:24;;;;;;;58.35;32.83;;;;;;;9.99;92.25;95505.28;1876286;76;21196;-86
2021/05/02 02:40:57;;;;;;;49.25;29.52;;;;;;;10.01;92.29;95501.79;1869268;76;21100;-86
2021/05/02 02:43:30;;;;;;;48.63;29.35;;;;;;;10.03;92.29;95496.97;1857746;76;21117;-86
2021/05/02 02:46:05;;;;;;;49.08;29.92;;;;;;;10.03;92.23;95490.89;1863543;76;21184;-86
2021/05/02 02:48:37;;;;;;;50.20;28.55;;;;;;;10.05;92.27;95487.40;1869987;76;21116;-87
2021/05/02 02:51:05;;;;;;;48.48;27.98;;;;;;;10.06;92.27;95480.48;1841147;76;21076;-86
2021/05/02 02:53:34;;;;;;;45.92;28.23;;;;;;;10.08;92.31;95478.30;1871186;76;21558;-87
2021/05/02 02:56:08;;;;;;;45.25;28.15;;;;;;;10.09;92.34;95469.27;1873242;76;21107;-88
2021/05/02 02:59:10;;;;;;;43.85;25.97;;;;;;;10.09;92.36;95461.33;1869428;76;21092;-87
2021/05/02 03:01:41;;;;;;;43.68;27.37;;;;;;;10.09;92.48;95448.09;1865069;76;21451;-86
2021/05/02 03:04:11;;;;;;;47.03;28.65;;;;;;;10.08;92.50;95443.87;1868021;76;21131;-86
2021/05/02 03:06:38;;;;;;;50.58;28.57;;;;;;;10.12;92.54;95445.38;1863375;76;21132;-86
2021/05/02 03:09:05;;;;;;;49.23;29.12;;;;;;;10.12;92.55;95439.53;1862717;76;21148;-87
2021/05/02 03:11:32;;;;;;;51.68;29.82;;;;;;;10.14;92.52;95439.80;1864601;76;21162;-87
2021/05/02 03:13:59;;;;;;;56.10;31.73;;;;;;;10.10;92.49;95431.11;1847485;76;21123;-86
2021/05/02 03:16:29;;;;;;;50.88;29.98;;;;;;;10.09;92.50;95428.23;1874435;76;21126;-86
2021/05/02 03:19:27;;;;;;;47.23;30.20;;;;;;;10.08;92.52;95423.23;1866290;76;21172;-86
2021/05/02 03:22:19;;;;;;;49.67;29.23;;;;;;;10.07;92.56;95421.67;1868365;76;21499;-86
2021/05/02 03:24:49;;;;;;;48.50;29.82;;;;;;;10.06;92.63;95411.63;1873396;76;21463;-86
2021/05/02 03:27:27;;;;;;;49.55;29.92;;;;;;;10.03;92.70;95402.97;1871339;76;21118;-86
2021/05/02 03:29:59;;;;;;;54.27;30.25;;;;;;;10.03;92.78;95400.33;1859852;76;21103;-87
2021/05/02 03:32:31;;;;;;;54.38;30.85;;;;;;;10.03;92.80;95395.58;1870765;76;21110;-85
2021/05/02 03:35:00;;;;;;;46.98;27.77;;;;;;;10.03;92.87;95390.28;1876962;76;21103;-87
2021/05/02 03:37:34;;;;;;;43.58;27.50;;;;;;;10.02;92.91;95384.20;1867648;76;21123;-87
2021/05/02 03:40:05;;;;;;;40.92;26.15;;;;;;;10.03;92.98;95383.12;1878501;76;21500;-87
2021/05/02 03:42:34;;;;;;;41.02;25.00;;;;;;;10.06;93.04;95377.75;1864069;76;21134;-87
2021/05/02 03:45:04;;;;;;;41.73;26.53;;;;;;;10.09;93.11;95373.16;1868247;76;21111;-87
2021/05/02 03:47:31;;;;;;;42.70;24.43;;;;;;;10.10;93.23;95371.53;1875843;76;21364;-87
2021/05/02 03:49:59;;;;;;;45.40;27.02;;;;;;;10.12;93.27;95361.41;1864718;76;21108;-87
2021/05/02 03:52:27;;;;;;;46.60;26.42;;;;;;;10.15;93.33;95349.99;1868378;76;21095;-87
2021/05/02 03:54:54;;;;;;;44.35;25.97;;;;;;;10.17;93.46;95349.14;1868079;76;21068;-87
2021/05/02 03:57:22;;;;;;;42.50;25.92;;;;;;;10.19;93.41;95340.34;1879222;76;21092;-88
2021/05/02 03:59:49;;;;;;;40.70;25.25;;;;;;;10.21;93.41;95346.11;1859116;76;21206;-89
2021/05/02 04:02:17;;;;;;;43.92;26.87;;;;;;;10.22;93.43;95335.78;1852757;76;21499;-87
2021/05/02 04:04:45;;;;;;;44.50;27.13;;;;;;;10.22;93.46;95337.89;1866669;76;21642;-87
2021/05/02 04:07:15;;;;;;;45.75;25.68;;;;;;;10.23;93.45;95332.05;1874142;76;21060;-88
2021/05/02 04:09:45;;;;;;;44.65;25.35;;;;;;;10.25;93.54;95338.59;1851902;76;21107;-88
2021/05/02 04:12:14;;;;;;;42.75;25.97;;;;;;;10.30;93.61;95331.06;1866227;76;21084;-88
2021/05/02 04:14:41;;;;;;;41.10;24.63;;;;;;;10.31;93.62;95324.14;1810374;78;21298;-88
2021/05/02 04:17:13;;;;;;;44.13;25.32;;;;;;;10.31;93.69;95326.78;1784526;80;21521;-87
2021/05/02 04:19:43;;;;;;;42.15;26.00;;;;;;;10.32;93.73;95320.94;1786110;80;21146;-87
2021/05/02 04:22:14;;;;;;;38.50;24.40;;;;;;;10.32;93.83;95313.00;1780491;80;21166;-87
2021/05/02 04:24:44;;;;;;;40.30;25.00;;;;;;;10.34;93.78;95314.24;1781768;80;21145;-88
2021/05/02 04:27:12;;;;;;;38.67;23.10;;;;;;;10.37;93.86;95310.19;1806711;79;21193;-87
2021/05/02 04:29:38;;;;;;;43.17;25.52;;;;;;;10.40;93.87;95311.67;1799599;79;21545;-87
2021/05/02 04:32:06;;;;;;;42.05;25.02;;;;;;;10.40;93.89;95309.03;1802107;78;21141;-87
2021/05/02 04:34:33;;;;;;;38.02;23.65;;;;;;;10.42;93.87;95302.12;1806194;79;21230;-87
2021/05/02 04:37:00;;;;;;;38.28;23.55;;;;;;;10.45;93.87;95309.45;1803507;78;21148;-87
2021/05/02 04:39:28;;;;;;;41.18;22.50;;;;;;;10.49;93.87;95310.38;1800345;79;21173;-87
2021/05/02 04:41:56;;;;;;;34.10;21.50;;;;;;;10.53;93.85;95302.59;1807790;79;21133;-87
2021/05/02 04:44:25;;;;;;;40.65;25.23;;;;;;;10.55;93.85;95307.03;1805688;79;21599;-87
2021/05/02 04:46:53;;;;;;;44.77;25.17;;;;;;;10.57;93.90;95305.66;1799185;79;21464;-87
2021/05/02 04:49:22;;;;;;;39.13;23.27;;;;;;;10.60;93.89;95303.70;1804284;79;21104;-87
2021/05/02 04:51:49;;;;;;;41.80;23.22;;;;;;;10.61;93.82;95309.23;1806331;79;21104;-87
2021/05/02 04:54:16;;;;;;;34.48;22.42;;;;;;;10.61;93.85;95319.84;1786787;79;21119;-87
2021/05/02 04:56:44;;;;;;;35.95;23.35;;;;;;;10.61;93.89;95317.73;1810984;78;21165;-87
2021/05/02 04:59:11;;;;;;;32.90;19.82;;;;;;;10.63;93.85;95317.66;1802409;79;21555;-87
2021/05/02 05:01:40;;;;;;;31.27;19.85;;;;;;;10.64;93.91;95305.96;1802115;79;21548;-87
2021/05/02 05:04:07;;;;;;;34.38;19.87;;;;;;;10.65;93.91;95312.82;1806065;79;21083;-87
2021/05/02 05:06:35;;;;;;;30.82;18.70;;;;;;;10.67;93.93;95299.25;1804887;79;21567;-88
2021/05/02 05:09:05;;;;;;;34.90;20.77;;;;;;;10.67;93.91;95301.36;1796571;78;21095;-88
2021/05/02 05:11:34;;;;;;;31.12;19.92;;;;;;;10.66;93.96;95300.34;1799038;79;21119;-87
2021/05/02 05:14:02;;;;;;;30.97;19.92;;;;;;;10.68;93.97;95303.47;1808169;79;21109;-86
2021/05/02 05:16:29;;;;;;;30.00;19.42;;;;;;;10.66;93.95;95287.88;1799898;79;21107;-87
2021/05/02 05:18:56;;;;;;;30.60;19.55;;;;;;;10.67;93.98;95298.71;1800507;79;21139;-86
2021/05/02 05:21:23;;;;;;;30.65;19.27;;;;;;;10.69;93.99;95290.45;1800187;79;21455;-86
2021/05/02 05:23:50;;;;;;;31.50;20.37;;;;;;;10.70;94.00;95285.41;1807465;79;21072;-87
2021/05/02 05:26:17;;;;;;;28.05;18.25;;;;;;;10.72;94.06;95289.07;1794614;79;21127;-87
2021/05/02 05:28:44;;;;;;;30.27;19.98;;;;;;;10.73;94.09;95286.66;1801986;79;21203;-87
2021/05/02 05:31:11;;;;;;;28.85;18.90;;;;;;;10.74;94.13;95278.39;1790751;79;21162;-88
2021/05/02 05:33:38;;;;;;;35.98;24.35;;;;;;;10.77;94.13;95275.11;1808519;79;21186;-87
2021/05/02 05:36:06;;;;;;;36.68;23.95;;;;;;;10.78;94.11;95269.26;1807127;79;21230;-87
2021/05/02 05:38:33;;;;;;;38.65;25.15;;;;;;;10.79;94.12;95280.09;1807876;79;21155;-87
2021/05/02 05:41:00;;;;;;;31.15;21.42;;;;;;;10.80;94.15;95280.33;1793265;78;21595;-87
2021/05/02 05:43:27;;;;;;;28.92;20.57;;;;;;;10.84;94.18;95268.80;1812168;79;21119;-88
2021/05/02 05:45:54;;;;;;;30.05;20.08;;;;;;;10.85;94.22;95259.76;1794321;79;21163;-87
2021/05/02 05:48:21;;;;;;;31.42;20.48;;;;;;;10.87;94.23;95255.47;1803208;79;21119;-88
2021/05/02 05:50:49;;;;;;;27.93;18.42;;;;;;;10.89;94.28;95243.45;1806314;79;21131;-88
2021/05/02 05:53:17;;;;;;;32.42;20.97;;;;;;;10.94;94.37;95233.22;1807523;79;21119;-88
2021/05/02 05:55:45;;;;;;;30.48;21.52;;;;;;;10.98;94.40;95236.83;1813670;79;21176;-87
2021/05/02 05:58:12;;;;;;;31.65;20.35;;;;;;;10.99;94.33;95231.75;1806651;79;21640;-88
2021/05/02 06:00:39;;;;;;;26.62;18.87;;;;;;;11.00;94.30;95233.31;1804686;79;21124;-87
2021/05/02 06:03:07;;;;;;;30.05;20.32;;;;;;;11.02;94.29;95232.99;1803641;79;21215;-88
2021/05/02 06:05:34;;;;;;;27.32;19.37;;;;;;;11.05;94.30;95233.14;1813207;79;21143;-87
2021/05/02 06:08:01;;;;;;;28.85;17.50;;;;;;;11.06;94.25;95238.67;1806750;79;21177;-88
2021/05/02 06:10:28;;;;;;;24.63;15.78;;;;;;;11.07;94.18;95254.81;1803044;79;21116;-88
2021/05/02 06:12:55;;;;;;;29.60;19.32;;;;;;;11.05;94.28;95268.16;1811353;79;21197;-87
2021/05/02 06:15:23;;;;;;;25.45;16.90;;;;;;;10.95;94.23;95279.31;1785946;79;21213;-87
2021/05/02 06:17:50;;;;;;;26.73;18.57;;;;;;;10.92;94.59;95287.11;1778699;79;21482;-88
2021/05/02 06:20:17;;;;;;;30.90;19.90;;;;;;;10.84;95.19;95289.20;1793680;79;21142;-89
2021/05/02 06:22:44;;;;;;;33.30;23.07;;;;;;;10.77;95.66;95283.06;1797869;79;21186;-88
2021/05/02 06:25:12;;;;;;;33.67;21.82;;;;;;;10.75;96.08;95284.47;1799010;79;21154;-88
2021/05/02 06:27:40;;;;;;;28.15;21.07;;;;;;;10.73;96.47;95285.33;1784535;79;21535;-88
2021/05/02 06:30:09;;;;;;;24.65;16.62;;;;;;;10.68;96.92;95279.06;1784706;79;21099;-88
2021/05/02 06:32:36;;;;;;;21.42;14.87;;;;;;;10.66;96.90;95275.17;1791154;79;21132;-88
2021/05/02 06:35:06;;;;;;;19.32;13.40;;;;;;;10.62;96.76;95271.05;1791639;79;21127;-89
2021/05/02 06:37:34;;;;;;;18.37;12.33;;;;;;;10.61;96.54;95277.44;1784747;79;21138;-89
2021/05/02 06:40:02;;;;;;;16.20;11.65;;;;;;;10.67;96.66;95278.83;1786618;79;21571;-88
2021/05/02 06:42:29;;;;;;;18.62;13.15;;;;;;;10.78;96.98;95240.09;1771690;79;21199;-90
2021/05/02 06:44:56;;;;;;;23.85;17.65;;;;;;;10.90;97.56;95219.05;1792028;79;21121;-88
2021/05/02 06:47:23;;;;;;;19.98;14.90;;;;;;;10.96;98.03;95220.42;1801377;79;21147;-89
2021/05/02 06:49:50;;;;;;;31.23;19.95;;;;;;;11.04;98.41;95189.15;1796691;79;21257;-89
2021/05/02 06:52:18;;;;;;;26.50;18.95;;;;;;;11.33;98.56;95175.19;1791846;79;21120;-88
2021/05/02 06:54:47;;;;;;;33.00;22.80;;;;;;;11.64;98.46;95192.16;1788253;79;21174;-88
2021/05/02 06:57:15;;;;;;;35.52;24.95;;;;;;;11.85;98.07;95182.97;1791250;78;21558;-88
2021/05/02 06:59:43;;;;;;;30.45;22.10;;;;;;;12.11;97.83;95176.18;1799036;78;21163;-88
2021/05/02 07:02:10;;;;;;;38.28;26.93;;;;;;;12.30;97.34;95173.84;1797642;78;21141;-88
2021/05/02 07:04:37;;;;;;;28.70;21.95;;;;;;;12.38;96.64;95174.88;1799424;79;21113;-88
2021/05/02 07:07:06;;;;;;;32.48;22.62;;;;;;;12.43;96.08;95172.81;1777834;78;21115;-88
2021/05/02 07:09:33;;;;;;;35.35;22.35;;;;;;;12.45;95.65;95171.94;1798292;78;21555;-88
2021/05/02 07:12:01;;;;;;;31.05;21.25;;;;;;;12.48;95.50;95165.19;1799068;78;21146;-88
2021/05/02 07:14:30;;;;;;;30.17;20.00;;;;;;;12.61;95.37;95150.84;1775651;79;21152;-88
2021/05/02 07:16:57;;;;;;;26.52;18.45;;;;;;;12.82;95.46;95149.50;1778350;79;21494;-88
2021/05/02 07:19:25;;;;;;;24.15;17.87;;;;;;;12.89;94.79;95133.77;1802772;78;21426;-87
2021/05/02 07:22:01;;;;;;;25.17;18.20;;;;;;;13.02;94.75;95127.93;1800943;78;21101;-88
2021/05/02 07:24:26;;;;;;;23.10;16.73;;;;;;;13.23;94.59;95128.68;1793861;78;21131;-87
2021/05/02 07:26:53;;;;;;;19.50;14.45;;;;;;;13.78;95.22;95117.24;1796151;78;21595;-87
2021/05/02 07:29:20;;;;;;;16.62;12.90;;;;;;;15.85;97.56;95118.97;1789734;78;21150;-88
2021/05/02 07:31:47;;;;;;;16.20;12.03;;;;;;;17.50;96.73;95120.47;1792342;78;22080;-87
2021/05/02 07:34:16;;;;;;;15.35;12.05;;;;;;;21.10;96.53;95109.63;1801981;79;21139;-86
2021/05/02 07:36:43;;;;;;;12.03;9.85;;;;;;;23.02;85.84;95096.65;1785394;79;21553;-83
2021/05/02 07:39:11;;;;;;;11.90;9.30;;;;;;;23.98;81.44;95095.19;1799079;79;21162;-84
2021/05/02 07:41:38;;;;;;;11.40;9.05;;;;;;;23.38;77.62;95087.73;1810994;78;21115;-84
2021/05/02 07:44:08;;;;;;;9.35;7.83;;;;;;;25.48;79.63;95078.44;1801614;78;21144;-84
2021/05/02 07:46:35;;;;;;;11.93;9.20;;;;;;;26.17;72.28;95072.84;1795365;78;21185;-84
2021/05/02 07:49:02;;;;;;;10.28;8.73;;;;;;;26.18;70.25;95056.71;1797488;78;21147;-85
2021/05/02 07:51:30;;;;;;;10.58;8.40;;;;;;;27.82;68.96;95046.40;1811727;78;21114;-84
2021/05/02 07:53:57;;;;;;;9.13;7.45;;;;;;;29.24;63.34;95054.11;1815510;78;21115;-84
2021/05/02 07:56:24;;;;;;;8.18;7.37;;;;;;;30.70;63.71;95042.42;1801705;78;21453;-84
2021/05/02 07:58:52;;;;;;;7.47;6.47;;;;;;;32.73;60.43;95034.77;1797515;78;21230;-84
2021/05/02 08:01:19;;;;;;;7.87;7.08;;;;;;;34.41;56.69;95037.89;1802008;78;21253;-84
2021/05/02 08:03:46;;;;;;;7.50;6.70;;;;;;;35.59;54.30;95029.55;1778964;79;21120;-84
2021/05/02 08:06:13;;;;;;;7.28;6.28;;;;;;;36.67;51.93;95022.05;1800653;78;21254;-84
2021/05/02 08:08:40;;;;;;;7.37;6.17;;;;;;;37.66;49.00;95026.09;1799894;78;21251;-85
2021/05/02 08:11:07;;;;;;;6.90;6.20;;;;;;;38.38;46.42;95024.90;1794489;78;21586;-84
2021/05/02 08:13:36;;;;;;;5.65;5.05;;;;;;;38.40;44.30;95027.92;1804744;78;21159;-85
2021/05/02 08:16:04;;;;;;;7.95;5.65;;;;;;;38.92;37.46;95019.84;1780904;80;21295;-84
2021/05/02 08:18:32;;;;;;;;;;;;;;;37.44;34.97;95011.53;1814435;78;21139;-85
2021/05/02 08:20:59;;;;;;;7.05;5.75;;;;;;;35.88;34.16;95012.15;1802785;78;20135;-85
2021/05/02 08:23:26;;;;;;;9.13;7.03;;;;;;;33.77;32.54;95010.07;1777038;79;21508;-85
2021/05/02 08:25:53;;;;;;;7.45;5.75;;;;;;;32.58;35.23;95018.19;1778606;79;21470;-88
2021/05/02 08:28:20;;;;;;;8.35;7.15;;;;;;;32.71;33.96;95010.53;1774656;79;21077;-87
2021/05/02 08:30:48;;;;;;;7.95;7.10;;;;;;;32.07;36.96;95010.59;1793478;79;21520;-87
2021/05/02 08:33:15;;;;;;;9.10;6.70;;;;;;;33.35;36.61;95008.19;1785108;80;21093;-86
2021/05/02 08:35:42;;;;;;;7.20;6.50;;;;;;;32.95;37.45;95011.27;1780985;79;21132;-86
2021/05/02 08:38:09;;;;;;;7.03;5.87;;;;;;;32.57;37.74;95015.30;1781669;79;21191;-86
2021/05/02 08:40:36;;;;;;;7.40;6.33;;;;;;;31.84;40.34;95005.12;1792974;78;21257;-86
2021/05/02 08:43:05;;;;;;;8.15;5.55;;;;;;;32.70;39.88;95004.90;1803649;78;21249;-86
2021/05/02 08:45:35;;;;;;;6.87;4.93;;;;;;;33.14;40.07;95010.56;1824729;78;21170;-86
2021/05/02 08:48:05;;;;;;;3.77;3.20;;;;;;;33.31;40.25;95008.34;1796094;78;21267;-86
2021/05/02 08:50:33;;;;;;;5.87;3.95;;;;;;;34.73;38.80;95004.54;1803173;77;21450;-86
2021/05/02 08:53:00;;;;;;;4.75;3.85;;;;;;;33.71;36.84;95007.84;1769021;79;21139;-86
2021/05/02 08:55:28;;;;;;;6.65;3.62;;;;;;;31.12;36.88;95013.28;1795178;79;21120;-86
2021/05/02 08:57:56;;;;;;;7.00;4.25;;;;;;;28.81;39.53;95015.66;1803258;78;21365;-85
2021/05/02 09:00:22;;;;;;;5.45;2.50;;;;;;;27.32;41.31;95011.63;1804247;78;21163;-86
2021/05/02 09:02:56;;;;;;;3.65;2.27;;;;;;;26.08;42.32;95020.44;1799925;78;21115;-88
2021/05/02 09:05:24;;;;;;;5.50;2.10;;;;;;;24.48;43.77;95025.59;1799173;79;21459;-85
2021/05/02 09:07:53;;;;;;;5.28;2.52;;;;;;;22.99;47.17;95029.88;1801392;78;21635;-85
2021/05/02 09:10:21;;;;;;;4.33;2.33;;;;;;;21.63;50.00;95027.45;1805171;78;21120;-85
2021/05/02 09:13:02;;;;;;;5.45;1.70;;;;;;;20.77;53.23;95033.94;1801117;78;21473;-85
2021/05/02 09:15:29;;;;;;;2.17;1.62;;;;;;;20.10;55.19;95031.18;1800705;78;21304;-87
2021/05/02 09:18:02;;;;;;;5.58;2.50;;;;;;;19.80;57.26;95035.45;1802550;78;21288;-86
2021/05/02 09:20:45;;;;;;;8.28;2.35;;;;;;;19.50;58.52;95027.55;1794932;78;21106;-86
2021/05/02 09:23:17;;;;;;;4.80;2.58;;;;;;;19.11;60.15;95041.44;1802623;78;21114;-87
2021/05/02 09:25:54;;;;;;;6.42;2.40;;;;;;;18.72;60.74;95037.06;1795746;78;21141;-88
2021/05/02 09:28:55;;;;;;;7.55;2.40;;;;;;;18.36;61.77;95046.03;1801754;78;21119;-87
2021/05/02 09:31:27;;;;;;;5.05;2.55;;;;;;;18.14;64.58;95048.81;1798963;79;21097;-87
2021/05/02 09:33:55;;;;;;;4.55;2.15;;;;;;;17.60;66.38;95056.69;1811266;78;21072;-87
2021/05/02 09:36:22;;;;;;;7.58;2.62;;;;;;;17.27;66.42;95050.61;1797134;78;21177;-91
2021/05/02 09:38:50;;;;;;;6.70;2.98;;;;;;;17.04;68.52;95070.16;1790811;78;21135;-87
2021/05/02 09:41:18;;;;;;;3.22;2.40;;;;;;;16.78;69.48;95079.44;1799880;78;21116;-87
2021/05/02 09:43:50;;;;;;;5.17;2.12;;;;;;;16.70;71.52;95072.39;1802789;78;21134;-87
2021/05/02 09:46:30;;;;;;;6.35;2.47;;;;;;;16.53;72.34;95082.38;1778931;79;21515;-87
2021/05/02 09:49:16;;;;;;;4.42;2.33;;;;;;;16.39;72.80;95086.12;1804542;77;21115;-87
2021/05/02 09:51:51;;;;;;;4.35;1.30;;;;;;;16.38;72.76;95081.89;1813602;78;21143;-87
2021/05/02 09:54:25;;;;;;;3.08;1.55;;;;;;;16.33;73.07;95095.56;1804808;78;21154;-87
2021/05/02 09:56:59;;;;;;;2.72;1.10;;;;;;;16.26;73.12;95092.16;1789297;78;21484;-87
2021/05/02 09:59:36;;;;;;;2.62;1.20;;;;;;;16.15;73.22;95114.45;1787850;78;21523;-88
2021/05/02 10:02:18;;;;;;;2.60;1.90;;;;;;;16.06;73.73;95129.94;1783958;79;21493;-87
2021/05/02 10:04:56;;;;;;;2.15;1.27;;;;;;;16.10;73.14;95112.06;1790861;79;21133;-87
2021/05/02 10:07:28;;;;;;;2.27;1.20;;;;;;;16.07;72.77;95120.78;1780614;79;21428;-87
2021/05/02 10:09:57;;;;;;;3.02;1.60;;;;;;;15.88;73.22;95131.63;1788709;79;21155;-86
2021/05/02 10:12:25;;;;;;;3.37;1.60;;;;;;;15.81;73.52;95140.06;1795845;79;21161;-87
2021/05/02 10:14:52;;;;;;;3.12;1.40;;;;;;;15.82;73.95;95146.95;1797551;79;21139;-87
2021/05/02 10:17:20;;;;;;;3.15;1.92;;;;;;;15.92;73.49;95141.86;1789989;79;21103;-87
2021/05/02 10:19:47;;;;;;;2.25;1.65;;;;;;;16.12;72.97;95135.20;1805330;79;21134;-87
2021/05/02 10:22:17;;;;;;;3.22;1.50;;;;;;;16.09;72.11;95141.26;1777743;79;21102;-86
2021/05/02 10:24:44;;;;;;;4.00;1.75;;;;;;;16.00;71.34;95133.42;1794333;79;21095;-86
2021/05/02 10:27:12;;;;;;;3.05;2.05;;;;;;;15.94;70.23;95145.52;1787319;79;21473;-86
2021/05/02 10:29:42;;;;;;;2.12;1.62;;;;;;;15.87;69.58;95142.67;1787564;79;21115;-87
2021/05/02 10:32:13;;;;;;;4.85;2.65;;;;;;;15.80;68.55;95172.69;1784835;79;21659;-86
2021/05/02 10:34:46;;;;;;;4.62;3.02;;;;;;;15.69;67.27;95141.70;1810707;79;21469;-86
2021/05/02 10:37:27;;;;;;;3.83;2.20;;;;;;;15.76;68.34;95164.35;1762776;80;21108;-87
2021/05/02 10:40:12;;;;;;;3.80;2.70;;;;;;;15.90;67.00;95158.00;1774218;79;21124;-87
2021/05/02 10:42:59;;;;;;;4.47;1.95;;;;;;;15.77;64.79;95167.27;1791014;79;21101;-88
2021/05/02 10:45:35;;;;;;;3.90;2.70;;;;;;;15.83;65.40;95186.69;1799671;79;21169;-86
2021/05/02 10:48:08;;;;;;;3.85;2.30;;;;;;;15.82;64.16;95180.36;1780377;79;21103;-86
2021/05/02 10:50:45;;;;;;;4.50;2.77;;;;;;;15.82;62.66;95187.81;1793910;79;21197;-86
2021/05/02 10:53:19;;;;;;;4.80;3.40;;;;;;;15.87;63.32;95143.44;1786247;79;21270;-86
2021/05/02 10:56:00;;;;;;;6.33;3.20;;;;;;;15.88;63.60;95187.75;1793780;79;21141;-86
2021/05/02 10:58:34;;;;;;;3.67;2.40;;;;;;;15.85;63.21;95173.75;1792737;78;21125;-85
2021/05/02 11:01:26;;;;;;;6.15;3.17;;;;;;;15.98;64.03;95198.48;1778302;79;21138;-85
2021/05/02 11:03:54;;;;;;;4.75;3.27;;;;;;;15.80;61.75;95202.08;1787120;79;21522;-86
2021/05/02 11:06:45;;;;;;;4.62;2.92;;;;;;;15.30;63.46;95180.00;1774773;79;21206;-85
2021/05/02 11:09:16;;;;;;;4.50;3.35;;;;;;;15.00;63.40;95176.94;1785881;79;21264;-86
2021/05/02 11:11:50;;;;;;;4.97;3.30;;;;;;;15.00;66.32;95201.73;1794892;79;21509;-86
2021/05/02 11:14:26;;;;;;;5.37;2.72;;;;;;;15.18;63.77;95227.55;1781518;79;21119;-86
2021/05/02 11:17:06;;;;;;;2.58;1.87;;;;;;;15.24;62.36;95207.52;1780002;79;21074;-87
2021/05/02 11:19:40;;;;;;;4.08;2.70;;;;;;;15.25;62.56;95218.41;1792224;79;21301;-87
2021/05/02 11:22:11;;;;;;;3.58;1.90;;;;;;;15.26;62.70;95215.95;1778885;79;21471;-85
2021/05/02 11:24:48;;;;;;;4.90;2.90;;;;;;;15.24;62.68;95216.09;1784886;79;21487;-86
2021/05/02 11:27:21;;;;;;;3.60;2.45;;;;;;;15.34;63.33;95221.72;1794988;79;21111;-87
2021/05/02 11:29:58;;;;;;;3.33;2.20;;;;;;;15.27;61.67;95232.20;1792434;79;21118;-86
2021/05/02 11:32:34;;;;;;;3.02;2.25;;;;;;;15.16;62.66;95249.81;1780124;79;21534;-86
2021/05/02 11:35:06;;;;;;;4.20;2.58;;;;;;;15.04;62.67;95221.83;1794697;79;21148;-86
2021/05/02 11:38:00;;;;;;;3.02;2.00;;;;;;;15.08;63.61;95256.87;1794510;79;21522;-86
2021/05/02 11:40:36;;;;;;;3.15;2.17;;;;;;;15.08;62.50;95246.19;1800166;79;21514;-86
2021/05/02 11:43:19;;;;;;;3.52;2.65;;;;;;;15.27;63.10;95281.59;1781485;79;21078;-87